Time;durP1;ratioP1;P1;durP2;ratioP2;P2;SDS_P1;SDS_P2;PMS_P1;PMS_P2;Temp;Humidity;BMP_temperature;BMP_pressure;BME280_temperature;BME280_humidity;BME280_pressure;Samples;Min_cycle;Max_cycle;Signal;HPM_P1;HPM_P2
2021/04/28 00:00:35;;;;;;;5.68;5.10;;;;;;;9.68;20.75;100583.81;5008370;28;99700;-74
2021/04/28 00:03:04;;;;;;;6.50;5.28;;;;;;;9.63;20.85;100575.72;4991268;28;96890;-74
2021/04/28 00:05:31;;;;;;;6.43;5.33;;;;;;;9.59;20.81;100573.88;5008443;28;97862;-73
2021/04/28 00:07:58;;;;;;;6.00;5.20;;;;;;;9.60;20.80;100575.69;5040995;27;97080;-73
2021/04/28 00:10:28;;;;;;;5.88;5.30;;;;;;;9.58;20.82;100569.44;5007055;28;97635;-73
2021/04/28 00:12:57;;;;;;;5.88;5.38;;;;;;;9.60;21.04;100570.38;5023110;27;97271;-73
2021/04/28 00:15:26;;;;;;;7.38;5.40;;;;;;;9.59;21.03;100567.69;5008873;28;97237;-73
2021/04/28 00:17:55;;;;;;;5.78;5.20;;;;;;;9.56;21.08;100567.59;4990042;28;100722;-73
2021/04/28 00:20:23;;;;;;;6.80;5.45;;;;;;;9.56;21.10;100563.19;5006828;28;99351;-73
2021/04/28 00:22:51;;;;;;;5.70;5.13;;;;;;;9.54;21.04;100558.69;5006744;28;97034;-72
2021/04/28 00:25:19;;;;;;;6.10;5.07;;;;;;;9.52;21.08;100550.69;4990629;28;97993;-72
2021/04/28 00:27:46;;;;;;;6.20;5.45;;;;;;;9.51;21.11;100554.22;4989581;28;98980;-72
2021/04/28 00:30:16;;;;;;;5.97;5.37;;;;;;;9.54;21.15;100546.31;5004782;28;97733;-72
2021/04/28 00:32:44;;;;;;;6.05;5.55;;;;;;;9.54;21.12;100553.38;5006542;28;97244;-72
2021/04/28 00:35:13;;;;;;;6.90;5.93;;;;;;;9.52;21.12;100541.81;5023597;27;97385;-72
2021/04/28 00:37:41;;;;;;;10.85;5.70;;;;;;;9.50;21.16;100541.78;4984016;28;100228;-72
2021/04/28 00:40:09;;;;;;;5.63;5.13;;;;;;;9.52;21.17;100541.81;5003946;28;97528;-73
2021/04/28 00:42:36;;;;;;;6.03;5.40;;;;;;;9.52;21.16;100540.06;5021850;27;96999;-73
2021/04/28 00:45:04;;;;;;;6.23;5.60;;;;;;;9.53;21.05;100533.91;4989649;28;96857;-72
2021/04/28 00:47:32;;;;;;;5.97;5.47;;;;;;;9.53;21.20;100535.66;4988096;28;99042;-73
2021/04/28 00:49:59;;;;;;;7.28;5.90;;;;;;;9.54;21.10;100529.47;5038810;27;98265;-73
2021/04/28 00:52:27;;;;;;;5.47;4.95;;;;;;;9.54;21.14;100532.13;4989382;28;97972;-73
2021/04/28 00:54:55;;;;;;;7.18;5.50;;;;;;;9.53;21.18;100533.00;5004936;28;97460;-72
2021/04/28 00:57:22;;;;;;;6.73;5.10;;;;;;;9.54;21.07;100527.72;5039556;27;100317;-73
2021/04/28 00:59:50;;;;;;;5.95;5.32;;;;;;;9.55;21.25;100529.53;4994533;28;98872;-72
2021/04/28 01:02:17;;;;;;;5.40;4.90;;;;;;;9.54;21.06;100527.72;4989521;28;96835;-72
2021/04/28 01:04:46;;;;;;;6.40;5.00;;;;;;;9.54;21.14;100526.81;4989128;28;97076;-72
2021/04/28 01:07:14;;;;;;;6.20;5.60;;;;;;;9.51;21.07;100522.34;5022589;27;97490;-73
2021/04/28 01:09:42;;;;;;;5.32;4.80;;;;;;;9.51;21.17;100525.00;4987722;28;97850;-73
2021/04/28 01:12:11;;;;;;;6.07;5.47;;;;;;;9.48;21.17;100513.44;5040312;27;97455;-72
2021/04/28 01:14:38;;;;;;;5.97;5.37;;;;;;;9.47;21.21;100509.88;4989220;28;96880;-73
2021/04/28 01:17:06;;;;;;;5.93;5.07;;;;;;;9.49;21.22;100518.78;4989445;28;98241;-73
2021/04/28 01:19:37;;;;;;;6.13;5.50;;;;;;;9.47;21.34;100514.25;4988273;28;97911;-72
2021/04/28 01:22:07;;;;;;;7.07;5.43;;;;;;;9.44;21.28;100515.09;4990405;28;97690;-73
2021/04/28 01:24:35;;;;;;;6.20;4.88;;;;;;;9.39;21.38;100508.75;5007319;28;97637;-73
2021/04/28 01:27:06;;;;;;;5.80;5.20;;;;;;;9.39;21.48;100511.41;4990360;28;99120;-74
2021/04/28 01:29:34;;;;;;;5.83;5.27;;;;;;;9.37;21.46;100513.13;5007086;28;99426;-73
2021/04/28 01:32:02;;;;;;;5.40;4.78;;;;;;;9.35;21.55;100509.59;5024511;27;96996;-73
2021/04/28 01:34:30;;;;;;;7.32;5.40;;;;;;;9.32;21.45;100504.19;5007936;28;97486;-72
2021/04/28 01:36:58;;;;;;;5.83;5.30;;;;;;;9.30;21.63;100503.25;5006500;28;97726;-72
2021/04/28 01:39:27;;;;;;;6.13;5.15;;;;;;;9.29;21.56;100504.13;5038794;27;98313;-73
2021/04/28 01:41:55;;;;;;;5.70;5.20;;;;;;;9.27;21.60;100507.59;5006988;28;97149;-73
2021/04/28 01:44:23;;;;;;;7.57;5.60;;;;;;;9.25;21.67;100499.59;5023054;27;97717;-73
2021/04/28 01:46:52;;;;;;;5.25;4.78;;;;;;;9.20;21.54;100499.53;5040199;27;96798;-73
2021/04/28 01:49:22;;;;;;;4.97;4.57;;;;;;;9.15;21.58;100502.94;5023259;27;99624;-73
2021/04/28 01:51:49;;;;;;;5.10;4.65;;;;;;;9.05;21.49;100493.88;5024213;27;97292;-73
2021/04/28 01:54:18;;;;;;;5.18;4.78;;;;;;;8.97;21.55;100486.59;5024568;27;96704;-73
2021/04/28 01:56:48;;;;;;;5.30;4.82;;;;;;;8.90;21.63;100489.94;5039414;27;98152;-73
2021/04/28 01:59:30;;;;;;;5.47;4.90;;;;;;;8.82;21.55;100488.91;5009773;28;100697;-72
2021/04/28 02:02:04;;;;;;;5.25;4.85;;;;;;;8.76;21.58;100483.44;5040595;27;97127;-72
2021/04/28 02:04:37;;;;;;;6.10;5.03;;;;;;;8.73;21.95;100478.06;5025081;27;97897;-72
2021/04/28 02:07:05;;;;;;;5.95;5.00;;;;;;;8.64;21.87;100481.38;4992357;28;98770;-72
2021/04/28 02:09:33;;;;;;;5.22;4.78;;;;;;;8.58;21.93;100477.69;5026158;27;97627;-72
2021/04/28 02:12:01;;;;;;;5.78;5.07;;;;;;;8.51;21.46;100475.75;5026011;27;96750;-72
2021/04/28 02:14:33;;;;;;;5.43;4.82;;;;;;;8.42;21.74;100475.50;5009716;28;97753;-71
2021/04/28 02:17:03;;;;;;;5.10;4.70;;;;;;;8.37;21.95;100478.03;5042965;27;97610;-71
2021/04/28 02:19:34;;;;;;;5.05;4.60;;;;;;;8.34;22.06;100477.03;5041434;27;97421;-72
2021/04/28 02:22:02;;;;;;;8.23;4.80;;;;;;;8.29;21.72;100476.03;4992711;28;97742;-72
2021/04/28 02:24:54;;;;;;;5.38;4.75;;;;;;;8.25;21.89;100475.06;5010308;28;96961;-72
2021/04/28 02:27:35;;;;;;;5.10;4.70;;;;;;;8.21;21.78;100471.44;4992528;28;99791;-72
2021/04/28 02:30:04;;;;;;;5.38;4.90;;;;;;;8.15;22.10;100475.69;5009933;28;97651;-71
2021/04/28 02:32:31;;;;;;;5.20;4.88;;;;;;;8.07;21.88;100467.56;5010948;28;96943;-72
2021/04/28 02:35:26;;;;;;;6.63;5.03;;;;;;;8.00;22.22;100470.00;4993334;28;97034;-72
2021/04/28 02:38:07;;;;;;;6.50;5.00;;;;;;;7.94;21.95;100461.88;4987849;28;99467;-72
2021/04/28 02:41:02;;;;;;;5.20;4.72;;;;;;;7.88;22.06;100459.06;4990350;28;102542;-72
2021/04/28 02:43:30;;;;;;;6.15;5.07;;;;;;;7.84;22.40;100463.38;5024838;27;97219;-72
2021/04/28 02:46:07;;;;;;;4.82;4.40;;;;;;;7.79;22.05;100466.75;5043147;27;97366;-72
2021/04/28 02:48:38;;;;;;;5.07;4.63;;;;;;;7.76;22.04;100464.03;5025031;27;98784;-71
2021/04/28 02:51:27;;;;;;;5.45;5.05;;;;;;;7.69;22.39;100452.34;5010952;28;98744;-72
2021/04/28 02:53:55;;;;;;;6.50;5.78;;;;;;;7.67;22.15;100448.81;5026615;27;97988;-70
2021/04/28 02:56:23;;;;;;;5.72;5.28;;;;;;;7.63;22.14;100454.88;5011543;27;97751;-71
2021/04/28 02:58:51;;;;;;;5.57;5.15;;;;;;;7.61;22.17;100459.22;4992566;28;99344;-70
2021/04/28 03:01:19;;;;;;;23.30;14.93;;;;;;;7.60;22.48;100446.81;5042953;27;99033;-70
2021/04/28 03:03:46;;;;;;;17.15;12.15;;;;;;;7.56;22.02;100447.59;5042567;27;97154;-71
2021/04/28 03:06:22;;;;;;;9.05;6.10;;;;;;;7.49;22.67;100453.56;5010548;28;97102;-71
2021/04/28 03:08:56;;;;;;;5.72;5.22;;;;;;;7.47;22.30;100455.28;5010166;28;98157;-72
2021/04/28 03:11:24;;;;;;;5.60;5.03;;;;;;;7.45;22.21;100450.78;5025600;27;98429;-72
2021/04/28 03:13:52;;;;;;;5.72;5.20;;;;;;;7.40;22.54;100447.97;5026343;27;96839;-72
2021/04/28 03:16:20;;;;;;;5.85;5.22;;;;;;;7.36;22.47;100455.78;5042012;27;97097;-72
2021/04/28 03:18:47;;;;;;;18.88;10.40;;;;;;;7.31;22.28;100447.72;5041805;27;96897;-72
2021/04/28 03:21:16;;;;;;;9.98;6.13;;;;;;;7.27;22.77;100447.59;5008093;28;99580;-72
2021/04/28 03:23:43;;;;;;;5.97;5.43;;;;;;;7.21;22.64;100448.31;5009651;28;96722;-72
2021/04/28 03:26:11;;;;;;;6.72;5.57;;;;;;;7.20;23.70;100449.16;5042150;27;97216;-72
2021/04/28 03:28:40;;;;;;;5.90;5.30;;;;;;;7.20;23.91;100449.16;5024879;27;98714;-71
2021/04/28 03:31:07;;;;;;;6.82;6.22;;;;;;;7.23;23.70;100454.53;5040689;27;99510;-72
2021/04/28 03:33:36;;;;;;;6.60;6.00;;;;;;;7.26;23.74;100446.69;4990873;28;96902;-71
2021/04/28 03:36:09;;;;;;;5.88;5.38;;;;;;;7.26;24.03;100444.03;4992021;28;97612;-72
2021/04/28 03:38:59;;;;;;;5.97;5.43;;;;;;;7.29;24.25;100445.88;5023358;27;100682;-72
2021/04/28 03:41:28;;;;;;;6.15;5.55;;;;;;;7.28;24.02;100442.34;5008959;28;96908;-71
2021/04/28 03:43:56;;;;;;;5.55;5.03;;;;;;;7.27;23.61;100440.56;5042519;27;97802;-71
2021/04/28 03:46:24;;;;;;;6.67;5.73;;;;;;;7.24;24.30;100443.09;5007467;28;96844;-71
2021/04/28 03:48:54;;;;;;;5.60;5.00;;;;;;;7.25;23.80;100447.56;5026301;27;99435;-72
2021/04/28 03:51:23;;;;;;;6.85;5.30;;;;;;;7.27;23.92;100439.66;5007589;28;98347;-71
2021/04/28 03:54:09;;;;;;;6.77;5.73;;;;;;;7.25;24.14;100440.47;5009357;28;98075;-71
2021/04/28 03:56:38;;;;;;;6.57;6.05;;;;;;;7.24;24.41;100449.28;5005967;28;98131;-71
2021/04/28 03:59:06;;;;;;;8.15;6.20;;;;;;;7.25;24.13;100448.44;5024073;27;99507;-71
2021/04/28 04:01:34;;;;;;;7.20;5.90;;;;;;;7.29;24.35;100444.13;5001953;28;100345;-73
2021/04/28 04:04:04;;;;;;;8.27;6.00;;;;;;;7.29;24.38;100444.13;4992210;28;97418;-73
2021/04/28 04:06:55;;;;;;;6.32;5.78;;;;;;;7.30;24.72;100445.03;5007210;28;98198;-71
2021/04/28 04:09:46;;;;;;;7.18;5.85;;;;;;;7.31;24.34;100452.13;5001185;28;98336;-71
2021/04/28 04:12:15;;;;;;;8.40;5.55;;;;;;;7.36;24.29;100447.84;4991067;28;100826;-71
2021/04/28 04:15:02;;;;;;;6.97;6.30;;;;;;;7.34;24.15;100449.56;5009455;28;97584;-74
2021/04/28 04:17:29;;;;;;;5.93;5.43;;;;;;;7.31;24.10;100449.47;5042295;27;97721;-71
2021/04/28 04:20:10;;;;;;;7.07;5.30;;;;;;;7.28;23.73;100452.91;5022201;27;99506;-70
2021/04/28 04:22:46;;;;;;;5.55;5.05;;;;;;;7.24;23.67;100459.88;5024164;27;101463;-70
2021/04/28 04:25:31;;;;;;;5.75;5.25;;;;;;;7.21;23.81;100457.16;5010401;28;96893;-70
2021/04/28 04:27:59;;;;;;;7.35;5.60;;;;;;;7.20;24.04;100450.03;5042372;27;97048;-70
2021/04/28 04:30:43;;;;;;;6.30;5.78;;;;;;;7.16;23.73;100452.56;5045624;27;96895;-70
2021/04/28 04:33:29;;;;;;;9.20;6.22;;;;;;;7.06;23.60;100456.69;5010165;28;97804;-72
2021/04/28 04:36:16;;;;;;;8.25;6.72;;;;;;;7.02;23.76;100448.59;5009545;28;97847;-72
2021/04/28 04:39:03;;;;;;;7.43;6.05;;;;;;;7.01;23.52;100457.41;5003179;28;97057;-71
2021/04/28 04:41:40;;;;;;;6.35;5.82;;;;;;;6.98;23.67;100449.38;5040018;27;97937;-71
2021/04/28 04:44:20;;;;;;;6.93;5.78;;;;;;;6.92;23.78;100454.47;5040731;27;99023;-71
2021/04/28 04:47:04;;;;;;;6.55;5.20;;;;;;;6.90;23.84;100453.53;4990806;28;96867;-72
2021/04/28 04:49:31;;;;;;;7.93;5.55;;;;;;;6.91;23.58;100452.66;5008907;28;97233;-72
2021/04/28 04:51:59;;;;;;;6.28;5.57;;;;;;;6.90;23.86;100445.59;5009642;28;97927;-72
2021/04/28 04:54:27;;;;;;;10.15;6.32;;;;;;;6.88;23.77;100447.28;5008120;28;97448;-71
2021/04/28 04:56:55;;;;;;;6.00;5.50;;;;;;;6.86;24.00;100446.34;5009295;28;97311;-72
2021/04/28 04:59:22;;;;;;;7.70;6.03;;;;;;;6.87;23.67;100450.81;5006194;28;97596;-72
2021/04/28 05:01:49;;;;;;;7.90;5.93;;;;;;;6.84;24.05;100442.75;5009686;28;97674;-72
2021/04/28 05:04:16;;;;;;;6.30;5.78;;;;;;;6.85;23.93;100444.56;5007761;28;96790;-71
2021/04/28 05:06:42;;;;;;;6.70;6.10;;;;;;;6.84;23.56;100445.41;5007447;28;96830;-72
2021/04/28 05:09:10;;;;;;;7.93;5.90;;;;;;;6.81;23.58;100445.31;5008658;28;97289;-72
2021/04/28 05:11:37;;;;;;;7.65;7.03;;;;;;;6.80;23.69;100440.88;5008922;28;97853;-72
2021/04/28 05:14:04;;;;;;;8.70;6.32;;;;;;;6.79;24.11;100445.28;5022803;27;99776;-73
2021/04/28 05:16:33;;;;;;;12.23;6.68;;;;;;;6.74;23.94;100449.53;5008299;28;96846;-72
2021/04/28 05:19:00;;;;;;;7.07;5.57;;;;;;;6.73;23.86;100444.19;5008261;28;97934;-72
2021/04/28 05:21:28;;;;;;;8.82;6.53;;;;;;;6.72;24.23;100437.09;5002249;28;100134;-72
2021/04/28 05:23:56;;;;;;;6.65;5.75;;;;;;;6.70;23.84;100442.34;5023967;27;101228;-72
2021/04/28 05:26:32;;;;;;;9.85;6.00;;;;;;;6.68;24.33;100438.75;5008702;28;97097;-72
2021/04/28 05:28:58;;;;;;;6.53;5.88;;;;;;;6.70;24.20;100439.72;5007966;28;97442;-72
2021/04/28 05:31:25;;;;;;;7.90;6.57;;;;;;;6.70;23.88;100430.88;5008284;28;99569;-72
2021/04/28 05:33:52;;;;;;;5.97;5.47;;;;;;;6.74;24.15;100435.41;5027775;27;99243;-74
2021/04/28 05:36:19;;;;;;;8.63;6.18;;;;;;;6.73;24.25;100434.50;5045100;27;98080;-72
2021/04/28 05:38:46;;;;;;;6.32;5.68;;;;;;;6.75;23.95;100435.44;5027908;27;97531;-72
2021/04/28 05:41:13;;;;;;;6.38;5.72;;;;;;;6.75;23.92;100431.91;5010984;28;99298;-72
2021/04/28 05:43:40;;;;;;;6.70;5.80;;;;;;;6.76;24.16;100429.28;5010409;28;100344;-72
2021/04/28 05:46:10;;;;;;;10.55;6.32;;;;;;;6.77;24.27;100431.09;5011536;28;97607;-72
2021/04/28 05:48:37;;;;;;;8.98;7.05;;;;;;;6.80;24.37;100430.28;5026150;27;97261;-71
2021/04/28 05:51:04;;;;;;;6.25;5.65;;;;;;;6.86;24.10;100431.38;5044905;27;97793;-71
2021/04/28 05:53:31;;;;;;;7.50;6.05;;;;;;;6.86;24.16;100435.78;5010490;28;99546;-71
2021/04/28 05:56:02;;;;;;;9.60;7.40;;;;;;;6.88;24.34;100429.69;5010400;28;98202;-72
2021/04/28 05:58:29;;;;;;;8.38;6.22;;;;;;;6.90;24.02;100430.63;5010292;28;97268;-72
2021/04/28 06:00:58;;;;;;;8.05;6.32;;;;;;;6.91;24.19;100432.41;5008124;28;99823;-71
2021/04/28 06:03:25;;;;;;;6.68;5.93;;;;;;;6.94;24.49;100434.28;4991919;28;99109;-71
2021/04/28 06:05:52;;;;;;;9.07;6.13;;;;;;;6.95;24.54;100430.75;4993188;28;97260;-71
2021/04/28 06:08:19;;;;;;;8.55;6.93;;;;;;;6.99;23.92;100427.34;5043427;27;97352;-72
2021/04/28 06:10:46;;;;;;;9.95;7.43;;;;;;;7.02;24.16;100419.50;5008827;28;99296;-73
2021/04/28 06:13:12;;;;;;;8.57;7.05;;;;;;;7.08;24.46;100422.34;5008848;28;98608;-71
2021/04/28 06:15:39;;;;;;;7.40;6.75;;;;;;;7.12;24.31;100419.84;5044611;27;97147;-70
2021/04/28 06:18:07;;;;;;;8.55;6.90;;;;;;;7.19;24.45;100410.31;5026071;27;97524;-71
2021/04/28 06:20:35;;;;;;;8.50;6.70;;;;;;;7.23;24.11;100423.69;5009633;28;98830;-72
2021/04/28 06:23:03;;;;;;;8.48;7.55;;;;;;;7.31;24.04;100415.94;5042439;27;98538;-71
2021/04/28 06:25:30;;;;;;;7.63;6.82;;;;;;;7.38;24.32;100419.69;5011662;28;98170;-71
2021/04/28 06:27:57;;;;;;;7.82;7.07;;;;;;;7.46;24.41;100404.94;5010183;28;97006;-70
2021/04/28 06:30:24;;;;;;;11.43;8.02;;;;;;;7.54;23.90;100409.59;5010134;28;97090;-71
2021/04/28 06:32:51;;;;;;;10.20;7.15;;;;;;;7.58;24.03;100416.78;5011214;28;99111;-71
2021/04/28 06:35:19;;;;;;;8.30;7.25;;;;;;;7.63;24.27;100406.28;5027351;27;98323;-71
2021/04/28 06:37:46;;;;;;;9.20;7.90;;;;;;;7.68;24.41;100408.22;5010121;28;97205;-71
2021/04/28 06:40:13;;;;;;;8.57;7.75;;;;;;;7.67;24.19;100406.44;5003481;28;99476;-70
2021/04/28 06:42:40;;;;;;;12.13;7.50;;;;;;;7.72;24.29;100409.19;5005961;28;97983;-71
2021/04/28 06:45:08;;;;;;;10.52;7.93;;;;;;;7.80;24.40;100407.66;4992711;28;97092;-71
2021/04/28 06:47:35;;;;;;;8.60;7.25;;;;;;;7.87;24.47;100402.56;5009023;28;97032;-72
2021/04/28 06:50:04;;;;;;;10.95;8.82;;;;;;;7.97;24.44;100399.28;5008152;28;97639;-70
2021/04/28 06:52:34;;;;;;;10.38;7.70;;;;;;;8.04;24.18;100401.22;5007676;28;98388;-70
2021/04/28 06:55:02;;;;;;;9.23;7.93;;;;;;;8.14;24.28;100397.94;5012501;27;97239;-71
2021/04/28 06:57:54;;;;;;;10.00;8.98;;;;;;;8.22;24.38;100388.41;5024802;27;97116;-71
2021/04/28 07:00:23;;;;;;;12.27;8.57;;;;;;;8.28;24.15;100386.78;5007364;28;98018;-70
2021/04/28 07:02:50;;;;;;;12.95;8.63;;;;;;;8.35;24.12;100388.72;5026322;27;97190;-72
2021/04/28 07:05:18;;;;;;;10.18;8.02;;;;;;;8.42;24.11;100385.34;5006245;28;97587;-71
2021/04/28 07:07:46;;;;;;;9.68;7.68;;;;;;;8.51;23.94;100388.25;5003525;28;96905;-71
2021/04/28 07:10:14;;;;;;;9.48;8.48;;;;;;;8.59;23.79;100390.22;4990288;28;98900;-72
2021/04/28 07:12:40;;;;;;;9.68;8.18;;;;;;;8.65;23.85;100390.34;5005729;28;101015;-73
2021/04/28 07:15:08;;;;;;;10.43;8.70;;;;;;;8.73;23.71;100383.44;5007271;28;96844;-72
2021/04/28 07:17:35;;;;;;;11.45;8.85;;;;;;;8.77;23.84;100385.31;4987311;28;98637;-72
2021/04/28 07:20:04;;;;;;;12.88;8.90;;;;;;;8.86;23.65;100379.34;5006805;28;96887;-72
2021/04/28 07:22:30;;;;;;;10.30;8.23;;;;;;;8.94;23.92;100372.41;5002746;28;101241;-72
2021/04/28 07:24:58;;;;;;;10.35;8.00;;;;;;;9.03;23.53;100378.81;5007039;28;97067;-71
2021/04/28 07:27:25;;;;;;;10.50;8.48;;;;;;;9.12;23.61;100370.13;5040286;27;97133;-71
2021/04/28 07:29:52;;;;;;;13.25;9.25;;;;;;;9.20;23.79;100374.75;5008415;28;98723;-71
2021/04/28 07:32:19;;;;;;;12.30;8.98;;;;;;;9.31;23.57;100374.97;5015245;28;97707;-71
2021/04/28 07:34:46;;;;;;;11.85;9.18;;;;;;;9.40;23.53;100375.13;5047443;27;97048;-71
2021/04/28 07:37:13;;;;;;;13.90;8.93;;;;;;;9.49;23.55;100374.44;5013525;28;96949;-72
2021/04/28 07:39:40;;;;;;;10.65;8.73;;;;;;;9.57;23.48;100368.41;4991118;28;100386;-72
2021/04/28 07:42:08;;;;;;;10.27;8.30;;;;;;;9.64;23.57;100369.41;5007545;28;98192;-72
2021/04/28 07:44:35;;;;;;;10.05;8.15;;;;;;;9.68;23.40;100366.84;5006894;28;97120;-72
2021/04/28 07:47:02;;;;;;;13.60;9.50;;;;;;;9.75;23.51;100368.75;5007330;28;96918;-71
2021/04/28 07:49:29;;;;;;;11.30;9.20;;;;;;;9.82;23.35;100368.00;4999773;28;99212;-71
2021/04/28 07:51:56;;;;;;;10.70;8.65;;;;;;;9.89;23.34;100367.22;5021973;27;99108;-71
2021/04/28 07:54:25;;;;;;;11.90;9.20;;;;;;;10.00;23.26;100364.75;5027596;27;97181;-71
2021/04/28 07:56:52;;;;;;;18.60;12.43;;;;;;;10.10;23.21;100364.03;5007460;28;97038;-72
2021/04/28 07:59:19;;;;;;;15.88;11.40;;;;;;;10.14;23.64;100369.41;5004112;28;97840;-72
2021/04/28 08:01:46;;;;;;;13.75;9.95;;;;;;;10.28;23.47;100364.34;5009179;28;97329;-72
2021/04/28 08:04:13;;;;;;;14.35;9.80;;;;;;;10.34;23.46;100356.44;5002053;28;97348;-71
2021/04/28 08:06:40;;;;;;;11.75;9.95;;;;;;;10.41;23.32;100362.75;4991978;28;98165;-72
2021/04/28 08:09:09;;;;;;;12.85;9.80;;;;;;;10.49;23.36;100364.69;5006243;28;97951;-73
2021/04/28 08:11:36;;;;;;;16.40;11.82;;;;;;;10.60;23.06;100354.19;5005858;28;97756;-73
2021/04/28 08:14:03;;;;;;;16.10;12.07;;;;;;;10.67;23.08;100348.06;5021187;27;97001;-73
2021/04/28 08:16:35;;;;;;;13.68;9.63;;;;;;;10.73;23.08;100346.41;5019704;27;98540;-73
2021/04/28 08:19:03;;;;;;;13.60;9.82;;;;;;;10.81;23.15;100347.38;5003886;28;98708;-73
2021/04/28 08:21:30;;;;;;;11.65;9.35;;;;;;;10.89;23.03;100350.16;5002268;28;98025;-73
2021/04/28 08:23:57;;;;;;;11.80;10.25;;;;;;;10.97;22.90;100345.84;5005695;28;97675;-73
2021/04/28 08:26:24;;;;;;;12.52;9.55;;;;;;;11.04;22.81;100343.25;5020204;27;97558;-73
2021/04/28 08:28:52;;;;;;;11.65;9.23;;;;;;;11.12;22.78;100341.56;5002637;28;99319;-73
2021/04/28 08:31:21;;;;;;;13.80;9.52;;;;;;;11.20;22.95;100339.91;4985200;28;100176;-73
2021/04/28 08:33:50;;;;;;;12.75;8.80;;;;;;;11.28;23.00;100339.09;5001006;28;97494;-72
2021/04/28 08:36:17;;;;;;;14.45;10.00;;;;;;;11.34;22.98;100345.44;5015465;27;98333;-74
2021/04/28 08:38:44;;;;;;;12.93;9.40;;;;;;;11.42;22.88;100341.06;5000557;28;99276;-73
2021/04/28 08:41:12;;;;;;;12.35;9.50;;;;;;;11.52;22.72;100334.06;5002903;28;97757;-73
2021/04/28 08:43:39;;;;;;;15.93;9.90;;;;;;;11.58;22.86;100332.34;4981663;28;97282;-73
2021/04/28 08:46:08;;;;;;;14.50;9.73;;;;;;;11.68;22.89;100344.91;5033262;27;97689;-72
2021/04/28 08:48:36;;;;;;;15.45;9.88;;;;;;;11.76;22.87;100332.50;5001612;28;100509;-72
2021/04/28 08:51:04;;;;;;;15.77;11.43;;;;;;;11.74;23.33;100339.59;5001122;28;99480;-73
2021/04/28 08:53:32;;;;;;;16.13;12.10;;;;;;;11.80;23.49;100337.00;5035467;27;97277;-72
2021/04/28 08:56:04;;;;;;;18.08;12.27;;;;;;;11.93;23.57;100330.91;5000718;28;98052;-73
2021/04/28 08:58:31;;;;;;;20.00;12.68;;;;;;;12.08;23.49;100338.13;5003728;28;97275;-73
2021/04/28 09:00:58;;;;;;;20.10;13.73;;;;;;;12.12;23.57;100334.63;5034822;27;99278;-71
2021/04/28 09:03:37;;;;;;;17.08;11.27;;;;;;;12.30;23.36;100332.13;5037561;27;97182;-72
2021/04/28 09:06:24;;;;;;;14.13;10.50;;;;;;;12.40;23.29;100322.41;5002705;28;97382;-72
2021/04/28 09:08:50;;;;;;;13.55;10.45;;;;;;;12.45;23.19;100328.66;4986088;28;100773;-72
2021/04/28 09:11:41;;;;;;;16.20;11.57;;;;;;;12.58;23.12;100323.41;5037384;27;98796;-73
2021/04/28 09:14:11;;;;;;;19.80;11.52;;;;;;;12.65;22.97;100324.31;5002313;28;97363;-73
2021/04/28 09:16:40;;;;;;;16.10;10.65;;;;;;;12.73;22.69;100315.47;5004865;28;97935;-73
2021/04/28 09:19:24;;;;;;;14.88;10.18;;;;;;;12.82;23.24;100315.50;5002437;28;96923;-73
2021/04/28 09:22:14;;;;;;;15.48;10.23;;;;;;;12.87;22.77;100320.88;5004473;28;99463;-72
2021/04/28 09:25:00;;;;;;;19.77;10.60;;;;;;;12.99;22.62;100310.22;5020107;27;97733;-74
2021/04/28 09:27:46;;;;;;;13.63;10.25;;;;;;;13.06;22.66;100307.63;5002893;28;96958;-74
2021/04/28 09:30:49;;;;;;;16.45;11.15;;;;;;;13.19;22.49;100303.22;5020915;27;101532;-72
2021/04/28 09:33:17;;;;;;;17.05;11.23;;;;;;;13.24;22.64;100297.91;5017984;27;99036;-72
2021/04/28 09:35:45;;;;;;;19.23;10.50;;;;;;;13.36;22.52;100303.25;5000740;28;96928;-73
2021/04/28 09:38:14;;;;;;;18.08;11.02;;;;;;;13.46;22.44;100303.25;5006145;28;97297;-73
2021/04/28 09:40:46;;;;;;;19.42;12.18;;;;;;;13.53;22.46;100294.38;5003771;28;100147;-72
2021/04/28 09:43:13;;;;;;;19.73;12.95;;;;;;;13.60;22.37;100295.28;5000588;28;99147;-71
2021/04/28 09:45:41;;;;;;;19.15;11.05;;;;;;;13.64;22.12;100302.44;4987419;28;97029;-73
2021/04/28 09:48:17;;;;;;;19.08;11.85;;;;;;;13.69;22.17;100296.19;5036709;27;96959;-73
2021/04/28 09:50:43;;;;;;;16.25;10.65;;;;;;;13.71;22.20;100298.84;5004003;28;98728;-72
2021/04/28 09:53:23;;;;;;;15.45;10.27;;;;;;;13.84;22.47;100293.53;5031036;27;100377;-72
2021/04/28 09:55:49;;;;;;;16.63;11.63;;;;;;;13.87;22.15;100296.22;5005465;28;98679;-72
2021/04/28 09:58:16;;;;;;;17.70;11.35;;;;;;;13.94;22.03;100292.66;5005219;28;97144;-70
2021/04/28 10:00:57;;;;;;;17.80;10.90;;;;;;;14.05;22.40;100289.97;5004245;28;98838;-70
2021/04/28 10:03:42;;;;;;;14.10;10.48;;;;;;;14.12;22.04;100287.28;5019774;27;100469;-70
2021/04/28 10:06:10;;;;;;;17.30;10.90;;;;;;;14.19;21.91;100281.94;5005420;28;97518;-70
2021/04/28 10:08:37;;;;;;;16.60;9.55;;;;;;;14.26;21.81;100289.97;5003483;28;96979;-70
2021/04/28 10:11:04;;;;;;;16.75;10.18;;;;;;;14.34;21.70;100276.53;5017921;27;99342;-70
2021/04/28 10:13:31;;;;;;;21.67;12.88;;;;;;;14.37;21.96;100279.22;5001339;28;97625;-70
2021/04/28 10:16:14;;;;;;;16.27;11.65;;;;;;;14.45;21.78;100280.06;5003865;28;97204;-69
2021/04/28 10:18:41;;;;;;;22.38;11.02;;;;;;;14.52;21.81;100277.38;5019774;27;97543;-70
2021/04/28 10:21:07;;;;;;;18.27;9.88;;;;;;;14.52;21.80;100281.84;5005703;28;98822;-70
2021/04/28 10:23:34;;;;;;;25.73;15.70;;;;;;;14.61;21.92;100279.19;5007039;28;98601;-71
2021/04/28 10:26:04;;;;;;;16.95;11.10;;;;;;;14.67;21.87;100271.13;5005697;28;97335;-70
2021/04/28 10:28:31;;;;;;;17.83;12.13;;;;;;;14.72;21.62;100269.31;4991651;28;96933;-70
2021/04/28 10:30:59;;;;;;;15.98;10.35;;;;;;;14.78;21.73;100263.94;4991691;28;98380;-70
2021/04/28 10:33:28;;;;;;;16.13;9.70;;;;;;;14.82;21.59;100269.28;5009408;28;97649;-70
2021/04/28 10:36:06;;;;;;;13.00;9.15;;;;;;;14.89;21.73;100270.13;5007688;28;98989;-71
2021/04/28 10:38:33;;;;;;;19.00;11.82;;;;;;;14.97;21.45;100273.69;5008049;28;98087;-71
2021/04/28 10:41:01;;;;;;;15.07;10.35;;;;;;;15.07;21.56;100262.00;5009000;28;98577;-71
2021/04/28 10:43:35;;;;;;;19.90;10.95;;;;;;;15.12;21.29;100261.06;5009500;28;98140;-71
2021/04/28 10:46:17;;;;;;;15.98;10.20;;;;;;;15.21;21.25;100260.13;5008759;28;97182;-70
2021/04/28 10:49:22;;;;;;;14.50;9.48;;;;;;;15.23;21.16;100257.47;5007730;28;97081;-71
2021/04/28 10:51:48;;;;;;;15.10;10.63;;;;;;;15.28;21.36;100251.16;5009774;28;97838;-70
2021/04/28 10:54:35;;;;;;;15.77;10.32;;;;;;;15.34;20.29;100243.09;5039435;27;98706;-70
2021/04/28 10:57:03;;;;;;;15.52;10.70;;;;;;;15.40;21.25;100247.53;5041717;27;96922;-71
2021/04/28 10:59:35;;;;;;;14.73;9.93;;;;;;;15.48;21.09;100245.69;5007322;28;98027;-71
2021/04/28 11:02:09;;;;;;;17.33;10.43;;;;;;;15.55;20.75;100240.28;5038968;27;99828;-70
2021/04/28 11:04:37;;;;;;;13.02;9.48;;;;;;;15.59;21.02;100239.34;5009133;28;98177;-71
2021/04/28 11:07:04;;;;;;;19.42;12.48;;;;;;;15.65;20.85;100233.06;5008755;28;97257;-71
2021/04/28 11:09:31;;;;;;;12.65;10.23;;;;;;;15.67;20.94;100244.63;5007531;28;97882;-71
2021/04/28 11:12:00;;;;;;;17.33;12.70;;;;;;;15.73;20.63;100240.13;4990185;28;98681;-73
2021/04/28 11:14:49;;;;;;;15.95;12.00;;;;;;;15.85;20.47;100239.09;5007579;28;100517;-72
2021/04/28 11:17:29;;;;;;;13.90;10.15;;;;;;;15.94;20.37;100233.69;5008809;28;96736;-72
2021/04/28 11:20:19;;;;;;;13.57;10.30;;;;;;;16.05;20.30;100232.69;5006623;28;97926;-71
2021/04/28 11:22:46;;;;;;;13.75;10.20;;;;;;;16.08;20.31;100223.72;5041359;27;97661;-71
2021/04/28 11:25:18;;;;;;;13.95;10.05;;;;;;;16.17;20.70;100220.06;5040693;27;100316;-72
2021/04/28 11:27:58;;;;;;;12.43;9.45;;;;;;;16.23;20.31;100225.38;5006109;28;96952;-72
2021/04/28 11:30:49;;;;;;;14.13;10.10;;;;;;;16.29;20.34;100214.56;5040681;27;97548;-72
2021/04/28 11:33:38;;;;;;;16.67;11.05;;;;;;;16.31;20.25;100205.56;5041166;27;99630;-71
2021/04/28 11:36:09;;;;;;;14.40;9.93;;;;;;;16.36;20.40;100208.22;5007749;28;97639;-74
2021/04/28 11:38:39;;;;;;;12.15;9.88;;;;;;;16.39;20.25;100208.16;4990092;28;97063;-72
2021/04/28 11:41:08;;;;;;;15.57;11.23;;;;;;;16.41;20.27;100200.97;5007732;28;98002;-72